No.21 Shinpuku Maru — JM6683 — position and weather

sailwx.info

Track history (hours):
 
Tides and Currents Weather Stations Pressure Air Temp Water Temp Dewpoint Dewpoint Depression Visibility Wind Speed Wind Dir Waves Ship Positions

No.21 Shinpuku Maru

Last reported at 2018-Feb-22 20:39 UTC. Time now 2018-Feb-24 03:49 UTC.
Position N 33°51' E 134°52'.

Length 76 m; draft 5 m.

Type: Cargo ship. MMSI: 431602058.

Date/timePositionNaut miles runAvg speedWind from/ knotsBaromVisibWave heightAir tempDewpointWater temp
2018-Feb-22 20:39N 33°51' E 134°52'213.9
2018-Feb-22 20:30N 33°53' E 134°53'713.8
2018-Feb-22 20:00N 33°60' E 134°56'713.9
2018-Feb-22 19:30N 34°06' E 134°60'713.8
2018-Feb-22 19:00N 34°12' E 135°04'4 7.6
2018-Feb-22 18:30N 34°14' E 135°08'0 0.0
2018-Feb-22 18:01N 34°14' E 135°08'0 0.0
2018-Feb-22 17:30N 34°14' E 135°08'0 0.0
2018-Feb-22 17:00N 34°14' E 135°08'0 0.0
2018-Feb-22 16:30N 34°14' E 135°08'0 0.0
2018-Feb-22 16:00N 34°14' E 135°08'0 0.0
2018-Feb-22 15:30N 34°14' E 135°08'0 0.0
2018-Feb-22 15:00N 34°14' E 135°08'0 0.0
2018-Feb-22 14:30N 34°14' E 135°08'0 0.0
2018-Feb-22 14:00N 34°14' E 135°08'0 0.0
2018-Feb-22 13:30N 34°14' E 135°08'0 0.0
2018-Feb-22 13:00N 34°14' E 135°08'0 0.0
2018-Feb-22 12:31N 34°14' E 135°08'0 0.1
2018-Feb-22 12:01N 34°14' E 135°08'4 7.6
2018-Feb-22 11:30N 34°13' E 135°03'611.7
2018-Feb-22 11:01N 34°07' E 135°01'611.5
2018-Feb-22 10:30N 34°02' E 134°58'611.8
2018-Feb-22 10:00N 33°57' E 134°54'811.4
2018-Feb-22 09:19N 33°50' E 134°50'411.5
2018-Feb-22 09:00N 33°47' E 134°47'5 0.2
2018-Feb-21 09:43N 33°51' E 134°50'713.7
2018-Feb-21 09:15N 33°57' E 134°54'313.5
2018-Feb-21 09:00N 33°60' E 134°56'714.0
2018-Feb-21 08:31N 34°06' E 134°59'714.1
2018-Feb-21 08:00N 34°12' E 135°03'4 8.5
2018-Feb-21 07:30N 34°14' E 135°08'0 0.0
2018-Feb-21 07:01N 34°14' E 135°08'0 0.0
2018-Feb-21 06:30N 34°14' E 135°08'0 0.0
2018-Feb-21 06:00N 34°14' E 135°08'0 0.0
2018-Feb-21 05:30N 34°14' E 135°08'0 0.0
2018-Feb-21 05:00N 34°14' E 135°08'0 0.0
2018-Feb-21 04:30N 34°14' E 135°08'0 0.0
2018-Feb-21 04:00N 34°14' E 135°08'0 0.0
2018-Feb-21 03:30N 34°14' E 135°08'0 0.0
2018-Feb-21 03:00N 34°14' E 135°08'0 0.0
2018-Feb-21 02:30N 34°14' E 135°08'0 0.0
2018-Feb-21 02:00N 34°14' E 135°08'0 0.0
2018-Feb-21 01:31N 34°14' E 135°08'0 0.0
2018-Feb-21 01:00N 34°14' E 135°08'0 0.0
2018-Feb-21 00:30N 34°14' E 135°08'0 0.0
2018-Feb-21 00:00N 34°14' E 135°08'0 0.0
2018-Feb-20 23:30N 34°14' E 135°08'0 0.0
2018-Feb-20 23:00N 34°14' E 135°08'0 0.0
2018-Feb-20 22:31N 34°14' E 135°08'0 0.0
2018-Feb-20 22:01N 34°14' E 135°08'2 3.2
2018-Feb-20 21:30N 34°15' E 135°06'0 0.0
2018-Feb-20 21:00N 34°15' E 135°06'0 0.0
2018-Feb-20 20:31N 34°15' E 135°06'0 0.0
2018-Feb-20 20:00N 34°15' E 135°06'0 0.0
2018-Feb-20 19:31N 34°15' E 135°06'0 0.0
2018-Feb-20 19:00N 34°15' E 135°06'0 0.0
2018-Feb-20 18:30N 34°15' E 135°06'0 0.0
2018-Feb-20 18:00N 34°15' E 135°06'0 0.0
2018-Feb-20 17:31N 34°15' E 135°06'0 0.1
2018-Feb-20 17:01N 34°15' E 135°06'1 1.0
2018-Feb-20 16:30N 34°15' E 135°06'611.6
2018-Feb-20 16:00N 34°09' E 135°02'611.8
2018-Feb-20 15:30N 34°04' E 134°60'612.0
2018-Feb-20 15:00N 33°58' E 134°57'912.0
2018-Feb-20 14:17N 33°50' E 134°53'412.0
2018-Feb-20 13:58N 33°49' E 134°49'2 0.1
2018-Feb-19 01:55N 33°50' E 134°50'913.3
2018-Feb-19 01:13N 33°59' E 134°54'313.2
2018-Feb-19 01:00N 34°01' E 134°56'713.3
2018-Feb-19 00:30N 34°07' E 134°60'713.2
2018-Feb-19 00:00N 34°13' E 135°04'3 6.8
2018-Feb-18 23:30N 34°14' E 135°08'0 0.0
2018-Feb-18 23:00N 34°14' E 135°08'0 0.0
2018-Feb-18 22:30N 34°14' E 135°08'0 0.0
2018-Feb-18 22:01N 34°14' E 135°08'0 0.0
2018-Feb-18 21:31N 34°14' E 135°08'0 0.0
2018-Feb-18 21:00N 34°14' E 135°08'0 0.0
2018-Feb-18 20:30N 34°14' E 135°08'0 0.0
2018-Feb-18 20:00N 34°14' E 135°08'0 0.0
2018-Feb-18 19:30N 34°14' E 135°08'0 0.0
2018-Feb-18 19:00N 34°14' E 135°08'0 0.0
2018-Feb-18 18:30N 34°14' E 135°08'0 0.0
2018-Feb-18 18:00N 34°14' E 135°08'0 0.0
2018-Feb-18 17:31N 34°14' E 135°08'0 0.0
2018-Feb-18 17:00N 34°14' E 135°08'0 0.0
2018-Feb-18 16:30N 34°14' E 135°08'0 0.0
2018-Feb-18 16:00N 34°14' E 135°08'0 0.0
2018-Feb-18 15:31N 34°14' E 135°08'0 0.0
2018-Feb-18 15:01N 34°14' E 135°08'0 0.0
2018-Feb-18 14:31N 34°14' E 135°08'0 0.0
2018-Feb-18 14:00N 34°14' E 135°08'0 0.0
2018-Feb-18 13:31N 34°14' E 135°08'0 0.0
2018-Feb-18 13:00N 34°14' E 135°08'0 0.0
2018-Feb-18 12:30N 34°14' E 135°08'0 0.0
2018-Feb-18 12:00N 34°14' E 135°08'0 0.0
2018-Feb-18 11:30N 34°14' E 135°08'3 6.3
2018-Feb-18 11:00N 34°13' E 135°04'611.8
2018-Feb-18 10:30N 34°08' E 135°01'611.7
2018-Feb-18 10:00N 34°03' E 134°57'611.9
2018-Feb-18 09:30N 33°57' E 134°54'811.7
2018-Feb-18 08:50N 33°50' E 134°50'611.3
2018-Feb-18 08:20N 33°46' E 134°46'9 0.3
2018-Feb-17 03:15N 33°53' E 134°53'413.7
2018-Feb-17 03:00N 33°56' E 134°55'713.7
2018-Feb-17 02:30N 34°02' E 134°58'713.6
2018-Feb-17 02:00N 34°09' E 135°02'613.2
2018-Feb-17 01:31N 34°14' E 135°05'2 4.2
2018-Feb-17 01:00N 34°14' E 135°08'0 0.0
2018-Feb-17 00:30N 34°14' E 135°08'0 0.0
2018-Feb-17 00:00N 34°14' E 135°08'0 0.0
2018-Feb-16 23:31N 34°14' E 135°08'0 0.0
2018-Feb-16 23:00N 34°14' E 135°08'0 0.0
2018-Feb-16 22:31N 34°14' E 135°08'0 0.0
2018-Feb-16 22:00N 34°14' E 135°08'0 0.0
2018-Feb-16 21:30N 34°14' E 135°08'0 0.0
2018-Feb-16 21:00N 34°14' E 135°08'0 0.0
2018-Feb-16 20:30N 34°14' E 135°08'0 0.0
2018-Feb-16 20:00N 34°14' E 135°08'0 0.0
2018-Feb-16 19:30N 34°14' E 135°08'0 0.0
2018-Feb-16 19:00N 34°14' E 135°08'0 0.0
2018-Feb-16 18:30N 34°14' E 135°08'0 0.0
2018-Feb-16 18:00N 34°14' E 135°08'0 0.0
2018-Feb-16 17:30N 34°14' E 135°08'0 0.0
2018-Feb-16 17:00N 34°14' E 135°08'0 0.0
2018-Feb-16 16:30N 34°14' E 135°08'0 0.0
2018-Feb-16 16:00N 34°14' E 135°08'0 0.0
2018-Feb-16 15:31N 34°14' E 135°08'0 0.0
2018-Feb-16 15:00N 34°14' E 135°08'0 0.0
2018-Feb-16 14:30N 34°14' E 135°08'1 2.5
2018-Feb-16 14:01N 34°14' E 135°07'0 0.7
2018-Feb-16 13:30N 34°15' E 135°06'0 0.0
2018-Feb-16 13:00N 34°15' E 135°06'0 0.0
2018-Feb-16 12:30N 34°15' E 135°06'0 0.1
2018-Feb-16 12:00N 34°15' E 135°06'0 0.0
2018-Feb-16 11:31N 34°15' E 135°06'0 0.1
2018-Feb-16 11:00N 34°15' E 135°06'0 0.0
2018-Feb-16 10:30N 34°15' E 135°06'510.1
2018-Feb-16 10:01N 34°11' E 135°03'612.1
2018-Feb-16 09:30N 34°05' E 134°59'612.2
2018-Feb-16 09:00N 33°60' E 134°56'612.3
2018-Feb-16 08:30N 33°54' E 134°52'711.6
2018-Feb-16 07:54N 33°48' E 134°48'511.1
2018-Feb-16 07:29N 33°45' E 134°45'9 0.6
2018-Feb-15 14:51N 33°52' E 134°52'513.9
2018-Feb-15 14:30N 33°56' E 134°55'713.9
2018-Feb-15 14:01N 34°02' E 134°59'714.0
2018-Feb-15 13:31N 34°08' E 135°02'713.4
2018-Feb-15 13:00N 34°14' E 135°06'2 3.3
2018-Feb-15 12:30N 34°14' E 135°08'0 0.0
2018-Feb-15 12:00N 34°14' E 135°08'0 0.0
2018-Feb-15 11:30N 34°14' E 135°08'0 0.0
2018-Feb-15 11:00N 34°14' E 135°08'0 0.0
2018-Feb-15 10:30N 34°14' E 135°08'0 0.0
2018-Feb-15 10:00N 34°14' E 135°08'0 0.0
2018-Feb-15 09:30N 34°14' E 135°08'0 0.0
2018-Feb-15 09:00N 34°14' E 135°08'0 0.0
2018-Feb-15 08:30N 34°14' E 135°08'0 0.0
2018-Feb-15 08:00N 34°14' E 135°08'0 0.0
2018-Feb-15 07:30N 34°14' E 135°08'0 0.0
2018-Feb-15 07:00N 34°14' E 135°08'0 0.0
2018-Feb-15 06:30N 34°14' E 135°08'0 0.0
2018-Feb-15 06:00N 34°14' E 135°08'0 0.0
2018-Feb-15 05:30N 34°14' E 135°08'0 0.0
2018-Feb-15 05:00N 34°14' E 135°08'0 0.0
2018-Feb-15 04:31N 34°14' E 135°08'0 0.0
2018-Feb-15 04:00N 34°14' E 135°08'0 0.0
2018-Feb-15 03:30N 34°14' E 135°08'0 0.0
2018-Feb-15 03:01N 34°14' E 135°08'0 0.0
2018-Feb-15 02:30N 34°14' E 135°08'0 0.0
2018-Feb-15 02:00N 34°14' E 135°08'0 0.0
2018-Feb-15 01:30N 34°14' E 135°08'0 0.0
2018-Feb-15 01:00N 34°14' E 135°08'0 0.0
2018-Feb-15 00:30N 34°14' E 135°08'0 0.0
2018-Feb-15 00:00N 34°14' E 135°08'0 0.0
2018-Feb-14 23:30N 34°14' E 135°08'0 0.0
2018-Feb-14 22:59N 34°14' E 135°08'0 0.0
2018-Feb-14 22:30N 34°14' E 135°08'0 0.0
2018-Feb-14 22:00N 34°14' E 135°08'0 0.0
2018-Feb-14 21:30N 34°14' E 135°08'0 0.0
2018-Feb-14 21:00N 34°14' E 135°08'0 0.0
2018-Feb-14 20:30N 34°14' E 135°08'0 0.0
2018-Feb-14 20:00N 34°14' E 135°08'0 0.0
2018-Feb-14 19:30N 34°14' E 135°08'0 0.0
2018-Feb-14 19:00N 34°14' E 135°08'0 0.0
2018-Feb-14 18:30N 34°14' E 135°08'0 0.0
2018-Feb-14 17:59N 34°14' E 135°08'0 0.0
2018-Feb-14 17:30N 34°14' E 135°08'0 0.0
2018-Feb-14 17:00N 34°14' E 135°08'0 0.0
2018-Feb-14 16:30N 34°14' E 135°08'0 0.0
2018-Feb-14 16:00N 34°14' E 135°08'0 0.0
2018-Feb-14 15:30N 34°14' E 135°08'0 0.0
2018-Feb-14 15:00N 34°14' E 135°08'0 0.0
2018-Feb-14 14:30N 34°14' E 135°08'0 0.0
2018-Feb-14 14:00N 34°14' E 135°08'0 0.0
2018-Feb-14 13:30N 34°14' E 135°08'0 0.0
2018-Feb-14 13:00N 34°14' E 135°08'0 0.0
2018-Feb-14 12:31N 34°14' E 135°08'0 0.0
2018-Feb-14 12:00N 34°14' E 135°08'0 0.1
2018-Feb-14 11:31N 34°14' E 135°08'4 8.0
2018-Feb-14 11:01N 34°12' E 135°03'611.9
2018-Feb-14 10:30N 34°06' E 135°00'612.3
2018-Feb-14 10:00N 34°01' E 134°58'612.2
2018-Feb-14 09:31N 33°55' E 134°54'612.1
2018-Feb-14 09:00N 33°50' E 134°50'611.7
2018-Feb-14 08:28N 33°45' E 134°45'11 0.3
2018-Feb-12 23:35N 33°54' E 134°54'113.0
2018-Feb-12 23:29N 33°55' E 134°55'613.0
2018-Feb-12 23:01N 34°00' E 134°58'612.9
2018-Feb-12 22:30N 34°06' E 135°01'713.2
2018-Feb-12 22:00N 34°12' E 135°04'3 6.8
2018-Feb-12 21:30N 34°14' E 135°08'0 0.0
2018-Feb-12 21:00N 34°14' E 135°08'  
Track history (hours):
 
Tides and Currents Weather Stations Pressure Air Temp Water Temp Dewpoint Dewpoint Depression Visibility Wind Speed Wind Dir Waves Ship Positions

No.21 Shinpuku Maru

Last reported at 2018-Feb-22 20:39 UTC. Time now 2018-Feb-24 03:49 UTC.
Position N 33°51' E 134°52'.

Length 76 m; draft 5 m.

Type: Cargo ship. MMSI: 431602058.

Date/timePositionNaut miles runAvg speedWind from/ knotsBaromVisibWave heightAir tempDewpointWater temp
2018-Feb-22 20:39N 33°51' E 134°52'213.9
2018-Feb-22 20:30N 33°53' E 134°53'713.8
2018-Feb-22 20:00N 33°60' E 134°56'713.9
2018-Feb-22 19:30N 34°06' E 134°60'713.8
2018-Feb-22 19:00N 34°12' E 135°04'4 7.6
2018-Feb-22 18:30N 34°14' E 135°08'0 0.0
2018-Feb-22 18:01N 34°14' E 135°08'0 0.0
2018-Feb-22 17:30N 34°14' E 135°08'0 0.0
2018-Feb-22 17:00N 34°14' E 135°08'0 0.0
2018-Feb-22 16:30N 34°14' E 135°08'0 0.0
2018-Feb-22 16:00N 34°14' E 135°08'0 0.0
2018-Feb-22 15:30N 34°14' E 135°08'0 0.0
2018-Feb-22 15:00N 34°14' E 135°08'0 0.0
2018-Feb-22 14:30N 34°14' E 135°08'0 0.0
2018-Feb-22 14:00N 34°14' E 135°08'0 0.0
2018-Feb-22 13:30N 34°14' E 135°08'0 0.0
2018-Feb-22 13:00N 34°14' E 135°08'0 0.0
2018-Feb-22 12:31N 34°14' E 135°08'0 0.1
2018-Feb-22 12:01N 34°14' E 135°08'4 7.6
2018-Feb-22 11:30N 34°13' E 135°03'611.7
2018-Feb-22 11:01N 34°07' E 135°01'611.5
2018-Feb-22 10:30N 34°02' E 134°58'611.8
2018-Feb-22 10:00N 33°57' E 134°54'811.4
2018-Feb-22 09:19N 33°50' E 134°50'411.5
2018-Feb-22 09:00N 33°47' E 134°47'5 0.2
2018-Feb-21 09:43N 33°51' E 134°50'713.7
2018-Feb-21 09:15N 33°57' E 134°54'313.5
2018-Feb-21 09:00N 33°60' E 134°56'714.0
2018-Feb-21 08:31N 34°06' E 134°59'714.1
2018-Feb-21 08:00N 34°12' E 135°03'4 8.5
2018-Feb-21 07:30N 34°14' E 135°08'0 0.0
2018-Feb-21 07:01N 34°14' E 135°08'0 0.0
2018-Feb-21 06:30N 34°14' E 135°08'0 0.0
2018-Feb-21 06:00N 34°14' E 135°08'0 0.0
2018-Feb-21 05:30N 34°14' E 135°08'0 0.0
2018-Feb-21 05:00N 34°14' E 135°08'0 0.0
2018-Feb-21 04:30N 34°14' E 135°08'0 0.0
2018-Feb-21 04:00N 34°14' E 135°08'0 0.0
2018-Feb-21 03:30N 34°14' E 135°08'0 0.0
2018-Feb-21 03:00N 34°14' E 135°08'0 0.0
2018-Feb-21 02:30N 34°14' E 135°08'0 0.0
2018-Feb-21 02:00N 34°14' E 135°08'0 0.0
2018-Feb-21 01:31N 34°14' E 135°08'0 0.0
2018-Feb-21 01:00N 34°14' E 135°08'0 0.0
2018-Feb-21 00:30N 34°14' E 135°08'0 0.0
2018-Feb-21 00:00N 34°14' E 135°08'0 0.0
2018-Feb-20 23:30N 34°14' E 135°08'0 0.0
2018-Feb-20 23:00N 34°14' E 135°08'0 0.0
2018-Feb-20 22:31N 34°14' E 135°08'0 0.0
2018-Feb-20 22:01N 34°14' E 135°08'2 3.2
2018-Feb-20 21:30N 34°15' E 135°06'0 0.0
2018-Feb-20 21:00N 34°15' E 135°06'0 0.0
2018-Feb-20 20:31N 34°15' E 135°06'0 0.0
2018-Feb-20 20:00N 34°15' E 135°06'0 0.0
2018-Feb-20 19:31N 34°15' E 135°06'0 0.0
2018-Feb-20 19:00N 34°15' E 135°06'0 0.0
2018-Feb-20 18:30N 34°15' E 135°06'0 0.0
2018-Feb-20 18:00N 34°15' E 135°06'0 0.0
2018-Feb-20 17:31N 34°15' E 135°06'0 0.1
2018-Feb-20 17:01N 34°15' E 135°06'1 1.0
2018-Feb-20 16:30N 34°15' E 135°06'611.6
2018-Feb-20 16:00N 34°09' E 135°02'611.8
2018-Feb-20 15:30N 34°04' E 134°60'612.0
2018-Feb-20 15:00N 33°58' E 134°57'912.0
2018-Feb-20 14:17N 33°50' E 134°53'412.0
2018-Feb-20 13:58N 33°49' E 134°49'2 0.1
2018-Feb-19 01:55N 33°50' E 134°50'913.3
2018-Feb-19 01:13N 33°59' E 134°54'313.2
2018-Feb-19 01:00N 34°01' E 134°56'713.3
2018-Feb-19 00:30N 34°07' E 134°60'713.2
2018-Feb-19 00:00N 34°13' E 135°04'3 6.8
2018-Feb-18 23:30N 34°14' E 135°08'0 0.0
2018-Feb-18 23:00N 34°14' E 135°08'0 0.0
2018-Feb-18 22:30N 34°14' E 135°08'0 0.0
2018-Feb-18 22:01N 34°14' E 135°08'0 0.0
2018-Feb-18 21:31N 34°14' E 135°08'0 0.0
2018-Feb-18 21:00N 34°14' E 135°08'0 0.0
2018-Feb-18 20:30N 34°14' E 135°08'0 0.0
2018-Feb-18 20:00N 34°14' E 135°08'0 0.0
2018-Feb-18 19:30N 34°14' E 135°08'0 0.0
2018-Feb-18 19:00N 34°14' E 135°08'0 0.0
2018-Feb-18 18:30N 34°14' E 135°08'0 0.0
2018-Feb-18 18:00N 34°14' E 135°08'0 0.0
2018-Feb-18 17:31N 34°14' E 135°08'0 0.0
2018-Feb-18 17:00N 34°14' E 135°08'0 0.0
2018-Feb-18 16:30N 34°14' E 135°08'0 0.0
2018-Feb-18 16:00N 34°14' E 135°08'0 0.0
2018-Feb-18 15:31N 34°14' E 135°08'0 0.0
2018-Feb-18 15:01N 34°14' E 135°08'0 0.0
2018-Feb-18 14:31N 34°14' E 135°08'0 0.0
2018-Feb-18 14:00N 34°14' E 135°08'0 0.0
2018-Feb-18 13:31N 34°14' E 135°08'0 0.0
2018-Feb-18 13:00N 34°14' E 135°08'0 0.0
2018-Feb-18 12:30N 34°14' E 135°08'0 0.0
2018-Feb-18 12:00N 34°14' E 135°08'0 0.0
2018-Feb-18 11:30N 34°14' E 135°08'3 6.3
2018-Feb-18 11:00N 34°13' E 135°04'611.8
2018-Feb-18 10:30N 34°08' E 135°01'611.7
2018-Feb-18 10:00N 34°03' E 134°57'611.9
2018-Feb-18 09:30N 33°57' E 134°54'811.7
2018-Feb-18 08:50N 33°50' E 134°50'611.3
2018-Feb-18 08:20N 33°46' E 134°46'9 0.3
2018-Feb-17 03:15N 33°53' E 134°53'413.7
2018-Feb-17 03:00N 33°56' E 134°55'713.7
2018-Feb-17 02:30N 34°02' E 134°58'713.6
2018-Feb-17 02:00N 34°09' E 135°02'613.2
2018-Feb-17 01:31N 34°14' E 135°05'2 4.2
2018-Feb-17 01:00N 34°14' E 135°08'0 0.0
2018-Feb-17 00:30N 34°14' E 135°08'0 0.0
2018-Feb-17 00:00N 34°14' E 135°08'0 0.0
2018-Feb-16 23:31N 34°14' E 135°08'0 0.0
2018-Feb-16 23:00N 34°14' E 135°08'0 0.0
2018-Feb-16 22:31N 34°14' E 135°08'0 0.0
2018-Feb-16 22:00N 34°14' E 135°08'0 0.0
2018-Feb-16 21:30N 34°14' E 135°08'0 0.0
2018-Feb-16 21:00N 34°14' E 135°08'0 0.0
2018-Feb-16 20:30N 34°14' E 135°08'0 0.0
2018-Feb-16 20:00N 34°14' E 135°08'0 0.0
2018-Feb-16 19:30N 34°14' E 135°08'0 0.0
2018-Feb-16 19:00N 34°14' E 135°08'0 0.0
2018-Feb-16 18:30N 34°14' E 135°08'0 0.0
2018-Feb-16 18:00N 34°14' E 135°08'0 0.0
2018-Feb-16 17:30N 34°14' E 135°08'0 0.0
2018-Feb-16 17:00N 34°14' E 135°08'0 0.0
2018-Feb-16 16:30N 34°14' E 135°08'0 0.0
2018-Feb-16 16:00N 34°14' E 135°08'0 0.0
2018-Feb-16 15:31N 34°14' E 135°08'0 0.0
2018-Feb-16 15:00N 34°14' E 135°08'0 0.0
2018-Feb-16 14:30N 34°14' E 135°08'1 2.5
2018-Feb-16 14:01N 34°14' E 135°07'0 0.7
2018-Feb-16 13:30N 34°15' E 135°06'0 0.0
2018-Feb-16 13:00N 34°15' E 135°06'0 0.0
2018-Feb-16 12:30N 34°15' E 135°06'0 0.1
2018-Feb-16 12:00N 34°15' E 135°06'0 0.0
2018-Feb-16 11:31N 34°15' E 135°06'0 0.1
2018-Feb-16 11:00N 34°15' E 135°06'0 0.0
2018-Feb-16 10:30N 34°15' E 135°06'510.1
2018-Feb-16 10:01N 34°11' E 135°03'612.1
2018-Feb-16 09:30N 34°05' E 134°59'612.2
2018-Feb-16 09:00N 33°60' E 134°56'612.3
2018-Feb-16 08:30N 33°54' E 134°52'711.6
2018-Feb-16 07:54N 33°48' E 134°48'511.1
2018-Feb-16 07:29N 33°45' E 134°45'9 0.6
2018-Feb-15 14:51N 33°52' E 134°52'513.9
2018-Feb-15 14:30N 33°56' E 134°55'713.9
2018-Feb-15 14:01N 34°02' E 134°59'714.0
2018-Feb-15 13:31N 34°08' E 135°02'713.4
2018-Feb-15 13:00N 34°14' E 135°06'2 3.3
2018-Feb-15 12:30N 34°14' E 135°08'0 0.0
2018-Feb-15 12:00N 34°14' E 135°08'0 0.0
2018-Feb-15 11:30N 34°14' E 135°08'0 0.0
2018-Feb-15 11:00N 34°14' E 135°08'0 0.0
2018-Feb-15 10:30N 34°14' E 135°08'0 0.0
2018-Feb-15 10:00N 34°14' E 135°08'0 0.0
2018-Feb-15 09:30N 34°14' E 135°08'0 0.0
2018-Feb-15 09:00N 34°14' E 135°08'0 0.0
2018-Feb-15 08:30N 34°14' E 135°08'0 0.0
2018-Feb-15 08:00N 34°14' E 135°08'0 0.0
2018-Feb-15 07:30N 34°14' E 135°08'0 0.0
2018-Feb-15 07:00N 34°14' E 135°08'0 0.0
2018-Feb-15 06:30N 34°14' E 135°08'0 0.0
2018-Feb-15 06:00N 34°14' E 135°08'0 0.0
2018-Feb-15 05:30N 34°14' E 135°08'0 0.0
2018-Feb-15 05:00N 34°14' E 135°08'0 0.0
2018-Feb-15 04:31N 34°14' E 135°08'0 0.0
2018-Feb-15 04:00N 34°14' E 135°08'0 0.0
2018-Feb-15 03:30N 34°14' E 135°08'0 0.0
2018-Feb-15 03:01N 34°14' E 135°08'0 0.0
2018-Feb-15 02:30N 34°14' E 135°08'0 0.0
2018-Feb-15 02:00N 34°14' E 135°08'0 0.0
2018-Feb-15 01:30N 34°14' E 135°08'0 0.0
2018-Feb-15 01:00N 34°14' E 135°08'0 0.0
2018-Feb-15 00:30N 34°14' E 135°08'0 0.0
2018-Feb-15 00:00N 34°14' E 135°08'0 0.0
2018-Feb-14 23:30N 34°14' E 135°08'0 0.0
2018-Feb-14 22:59N 34°14' E 135°08'0 0.0
2018-Feb-14 22:30N 34°14' E 135°08'0 0.0
2018-Feb-14 22:00N 34°14' E 135°08'0 0.0
2018-Feb-14 21:30N 34°14' E 135°08'0 0.0
2018-Feb-14 21:00N 34°14' E 135°08'0 0.0
2018-Feb-14 20:30N 34°14' E 135°08'0 0.0
2018-Feb-14 20:00N 34°14' E 135°08'0 0.0
2018-Feb-14 19:30N 34°14' E 135°08'0 0.0
2018-Feb-14 19:00N 34°14' E 135°08'0 0.0
2018-Feb-14 18:30N 34°14' E 135°08'0 0.0
2018-Feb-14 17:59N 34°14' E 135°08'0 0.0
2018-Feb-14 17:30N 34°14' E 135°08'0 0.0
2018-Feb-14 17:00N 34°14' E 135°08'0 0.0
2018-Feb-14 16:30N 34°14' E 135°08'0 0.0
2018-Feb-14 16:00N 34°14' E 135°08'0 0.0
2018-Feb-14 15:30N 34°14' E 135°08'0 0.0
2018-Feb-14 15:00N 34°14' E 135°08'0 0.0
2018-Feb-14 14:30N 34°14' E 135°08'0 0.0
2018-Feb-14 14:00N 34°14' E 135°08'0 0.0
2018-Feb-14 13:30N 34°14' E 135°08'0 0.0
2018-Feb-14 13:00N 34°14' E 135°08'0 0.0
2018-Feb-14 12:31N 34°14' E 135°08'0 0.0
2018-Feb-14 12:00N 34°14' E 135°08'0 0.1
2018-Feb-14 11:31N 34°14' E 135°08'4 8.0
2018-Feb-14 11:01N 34°12' E 135°03'611.9
2018-Feb-14 10:30N 34°06' E 135°00'612.3
2018-Feb-14 10:00N 34°01' E 134°58'612.2
2018-Feb-14 09:31N 33°55' E 134°54'612.1
2018-Feb-14 09:00N 33°50' E 134°50'611.7
2018-Feb-14 08:28N 33°45' E 134°45'11 0.3
2018-Feb-12 23:35N 33°54' E 134°54'113.0
2018-Feb-12 23:29N 33°55' E 134°55'613.0
2018-Feb-12 23:01N 34°00' E 134°58'612.9
2018-Feb-12 22:30N 34°06' E 135°01'713.2
2018-Feb-12 22:00N 34°12' E 135°04'3 6.8
2018-Feb-12 21:30N 34°14' E 135°08'0 0.0
2018-Feb-12 21:00N 34°14' E 135°08'  

Dump ship's entire track history